Time;durP1;ratioP1;P1;durP2;ratioP2;P2;SDS_P1;SDS_P2;PMS_P1;PMS_P2;Temp;Humidity;BMP_temperature;BMP_pressure;BME280_temperature;BME280_humidity;BME280_pressure;Samples;Min_cycle;Max_cycle;Signal;HPM_P1;HPM_P2
2022/06/22 00:01:04;;;;;;;2.63;1.55;;;615.10;1331.20;;;;;;4857204;29;20034;-75
2022/06/22 00:03:31;;;;;;;7.03;2.17;;;615.00;1331.20;;;;;;4854717;29;20099;-74
2022/06/22 00:05:57;;;;;;;3.97;1.80;;;615.10;1331.20;;;;;;4857433;29;20077;-74
2022/06/22 00:08:33;;;;;;;3.80;1.60;;;615.10;1331.20;;;;;;4857376;29;20030;-74
2022/06/22 00:11:11;;;;;;;4.00;1.55;;;615.10;1305.60;;;;;;4856277;29;20022;-74
2022/06/22 00:13:37;;;;;;;7.45;1.92;;;615.00;1331.20;;;;;;4857427;29;20531;-75
2022/06/22 00:16:06;;;;;;;4.57;1.80;;;614.80;1331.20;;;;;;4857132;29;20122;-75
2022/06/22 00:18:35;;;;;;;5.90;1.90;;;614.80;1331.20;;;;;;4856863;29;20068;-75
2022/06/22 00:21:20;;;;;;;7.03;1.73;;;614.80;1331.20;;;;;;4863267;29;20607;-75
2022/06/22 00:23:49;;;;;;;6.25;1.83;;;614.70;1331.20;;;;;;4851927;29;20053;-75
2022/06/22 00:26:24;;;;;;;5.32;1.92;;;614.60;1305.60;;;;;;4849745;29;20030;-74
2022/06/22 00:29:17;;;;;;;5.60;1.73;;;614.60;1305.60;;;;;;4849669;29;20041;-75
2022/06/22 00:31:49;;;;;;;4.63;1.40;;;614.70;1280.00;;;;;;4854993;29;20485;-75
2022/06/22 00:34:22;;;;;;;7.40;1.70;;;614.80;1280.00;;;;;;4926737;29;20501;-75
2022/06/22 00:37:03;;;;;;;4.00;1.77;;;614.80;1254.40;;;;;;4926747;29;20028;-75
2022/06/22 00:39:29;;;;;;;5.43;1.80;;;614.80;1254.40;;;;;;4928756;29;20043;-75
2022/06/22 00:42:15;;;;;;;4.53;1.42;;;614.80;1254.40;;;;;;4928289;29;20027;-75
2022/06/22 00:44:58;;;;;;;3.88;1.75;;;614.80;1254.40;;;;;;4928248;29;20597;-75
2022/06/22 00:47:29;;;;;;;3.53;1.60;;;614.90;1254.40;;;;;;4928004;29;20044;-75
2022/06/22 00:50:01;;;;;;;6.28;1.70;;;614.90;1254.40;;;;;;4952695;28;20016;-75
2022/06/22 00:52:38;;;;;;;4.93;1.63;;;614.90;1254.40;;;;;;4928814;29;20052;-75
2022/06/22 00:55:16;;;;;;;2.92;1.67;;;614.70;1280.00;;;;;;4927519;29;20079;-75
2022/06/22 00:57:48;;;;;;;3.45;1.30;;;614.60;1280.00;;;;;;4927012;29;20540;-75
2022/06/22 01:00:19;;;;;;;5.97;1.60;;;614.40;1280.00;;;;;;4908946;29;20111;-75
2022/06/22 01:02:51;;;;;;;6.43;1.70;;;614.50;1280.00;;;;;;4937839;29;20050;-75
2022/06/22 01:05:57;;;;;;;2.85;1.50;;;614.60;1254.40;;;;;;4937570;29;20028;-75
2022/06/22 01:08:33;;;;;;;3.42;1.50;;;614.60;1254.40;;;;;;4937100;29;20083;-75
2022/06/22 01:11:06;;;;;;;3.30;1.15;;;614.60;1228.80;;;;;;4920474;29;20051;-75
2022/06/22 01:13:37;;;;;;;5.82;1.40;;;614.50;1228.80;;;;;;4937794;29;20031;-75
2022/06/22 01:16:15;;;;;;;3.83;1.58;;;614.60;1228.80;;;;;;4937398;29;20031;-75
2022/06/22 01:18:46;;;;;;;3.75;1.52;;;614.60;1228.80;;;;;;4937240;29;20553;-75
2022/06/22 01:21:22;;;;;;;6.65;1.50;;;614.50;1228.80;;;;;;4937097;29;20382;-75
2022/06/22 01:23:47;;;;;;;4.47;1.20;;;614.60;1228.80;;;;;;4937253;29;20028;-75
2022/06/22 01:26:40;;;;;;;3.33;1.33;;;614.50;1228.80;;;;;;4945142;28;20026;-75
2022/06/22 01:29:21;;;;;;;4.90;1.48;;;614.60;1228.80;;;;;;4942748;29;20109;-75
2022/06/22 01:32:01;;;;;;;5.85;1.80;;;614.40;1228.80;;;;;;4944768;28;20023;-75
2022/06/22 01:34:51;;;;;;;2.60;1.30;;;614.50;1254.40;;;;;;4936202;29;20024;-75
2022/06/22 01:37:28;;;;;;;2.38;1.40;;;614.40;1254.40;;;;;;4937161;29;20112;-75
2022/06/22 01:40:12;;;;;;;4.70;1.58;;;589.70;1254.40;;;;;;4937003;29;20288;-75
2022/06/22 01:43:14;;;;;;;2.50;1.25;;;589.70;1254.40;;;;;;4919685;29;20067;-75
2022/06/22 01:45:51;;;;;;;3.50;1.38;;;589.70;1254.40;;;;;;4936849;29;20079;-75
2022/06/22 01:48:23;;;;;;;5.70;1.30;;;589.70;1254.40;;;;;;4936890;29;20098;-75
2022/06/22 01:50:59;;;;;;;6.97;1.65;;;589.60;1280.00;;;;;;4919771;29;20043;-75
2022/06/22 01:53:34;;;;;;;8.65;2.10;;;589.60;1280.00;;;;;;4936915;29;20024;-75
2022/06/22 01:56:15;;;;;;;6.45;1.50;;;589.60;1280.00;;;;;;4936701;29;20363;-75
2022/06/22 01:58:59;;;;;;;4.53;1.40;;;589.70;1280.00;;;;;;4936761;29;20020;-75
2022/06/22 02:01:48;;;;;;;5.22;1.52;;;589.70;1280.00;;;;;;4919177;29;20134;-75
2022/06/22 02:04:36;;;;;;;3.33;1.60;;;589.70;1280.00;;;;;;4919644;29;20032;-75
2022/06/22 02:07:45;;;;;;;4.95;1.60;;;589.60;1280.00;;;;;;4936810;29;20036;-75
2022/06/22 02:10:37;;;;;;;3.42;1.48;;;589.70;1280.00;;;;;;4936587;29;20016;-75
2022/06/22 02:13:24;;;;;;;6.55;1.88;;;589.70;1280.00;;;;;;4936289;29;20474;-75
2022/06/22 02:16:15;;;;;;;4.45;1.70;;;589.70;1280.00;;;;;;4936342;29;20024;-75
2022/06/22 02:18:51;;;;;;;2.10;1.13;;;589.60;1305.60;;;;;;4936184;29;20107;-75
2022/06/22 02:21:17;;;;;;;4.50;1.45;;;589.50;1305.60;;;;;;4919300;29;20036;-75
2022/06/22 02:23:44;;;;;;;5.15;1.52;;;589.50;1305.60;;;;;;4918956;29;20461;-74
2022/06/22 02:26:27;;;;;;;2.03;1.15;;;589.40;1305.60;;;;;;4943675;29;20015;-75
2022/06/22 02:28:53;;;;;;;4.05;1.58;;;589.40;1305.60;;;;;;4939456;29;20042;-75
2022/06/22 02:31:20;;;;;;;3.00;1.10;;;589.40;1305.60;;;;;;4944106;29;20385;-75
2022/06/22 02:33:54;;;;;;;4.20;1.30;;;589.30;1305.60;;;;;;4941398;29;20473;-75
2022/06/22 02:36:21;;;;;;;3.63;1.65;;;589.30;1305.60;;;;;;4935917;29;20020;-75
2022/06/22 02:38:49;;;;;;;4.68;1.40;;;589.30;1331.20;;;;;;4936133;29;20478;-75
2022/06/22 02:46:47;;;;;;;2.55;1.42;;;589.30;1331.20;;;;;;4935844;28;20125;-74
2022/06/22 02:49:23;;;;;;;2.17;1.40;;;589.40;1331.20;;;;;;4950410;29;20106;-75
2022/06/22 02:51:50;;;;;;;2.63;1.45;;;589.40;1305.60;;;;;;4946056;28;20390;-75
2022/06/22 02:54:28;;;;;;;4.50;1.30;;;589.30;1305.60;;;;;;4935720;29;20104;-75
2022/06/22 02:57:03;;;;;;;8.57;1.67;;;589.30;1331.20;;;;;;4935536;29;20020;-75
2022/06/22 02:59:30;;;;;;;4.68;1.30;;;589.30;1331.20;;;;;;4935688;29;20170;-75
2022/06/22 03:01:56;;;;;;;5.55;1.80;;;589.30;1331.20;;;;;;4943255;29;20515;-75
2022/06/22 03:04:21;;;;;;;3.20;1.10;;;589.30;1331.20;;;;;;4940688;28;20032;-75
2022/06/22 03:06:51;;;;;;;3.67;1.50;;;589.40;1331.20;;;;;;4940985;29;20043;-74
2022/06/22 03:09:18;;;;;;;5.47;1.60;;;589.30;1331.20;;;;;;4942242;29;20027;-75
2022/06/22 03:11:50;;;;;;;4.15;1.42;;;589.30;1356.80;;;;;;4940302;29;20450;-75
2022/06/22 03:14:37;;;;;;;4.55;1.30;;;589.30;1331.20;;;;;;4954356;29;20023;-75
2022/06/22 03:17:13;;;;;;;3.38;1.50;;;589.30;1356.80;;;;;;4930631;29;20027;-75
2022/06/22 03:19:43;;;;;;;2.85;1.40;;;589.50;1331.20;;;;;;4935166;29;20034;-75
2022/06/22 03:22:37;;;;;;;7.88;1.73;;;589.30;1331.20;;;;;;4935192;29;20019;-75
2022/06/22 03:25:27;;;;;;;5.75;1.40;;;589.30;1356.80;;;;;;4933603;29;20122;-75
2022/06/22 03:27:58;;;;;;;4.22;1.77;;;589.10;1356.80;;;;;;4906864;29;20024;-75
2022/06/22 03:30:32;;;;;;;2.95;1.52;;;589.20;1356.80;;;;;;4935476;29;20016;-75
2022/06/22 03:33:08;;;;;;;3.08;1.30;;;589.20;1356.80;;;;;;4946638;29;20035;-75
2022/06/22 03:35:40;;;;;;;;;;;589.10;1356.80;;;;;;4948549;29;20032;-75
2022/06/22 03:38:10;;;;;;;6.50;1.65;;;589.10;1382.40;;;;;;4918067;29;19907;-75
2022/06/22 03:40:41;;;;;;;6.72;1.33;;;589.20;1382.40;;;;;;4934744;29;20031;-75
2022/06/22 03:43:22;;;;;;;4.15;1.60;;;589.30;1382.40;;;;;;4935129;29;20421;-75
2022/06/22 03:46:11;;;;;;;2.50;1.42;;;589.30;1356.80;;;;;;4918143;29;20122;-75
2022/06/22 03:48:53;;;;;;;7.32;1.98;;;589.30;1356.80;;;;;;4917619;29;20485;-75
2022/06/22 03:51:33;;;;;;;7.45;1.77;;;589.40;1356.80;;;;;;4934913;29;20042;-75
2022/06/22 03:54:18;;;;;;;5.07;1.73;;;589.20;1356.80;;;;;;4929861;29;20043;-75
2022/06/22 03:56:50;;;;;;;3.40;1.40;;;589.20;1382.40;;;;;;4917686;29;20028;-75
2022/06/22 03:59:16;;;;;;;4.13;1.30;;;589.10;1382.40;;;;;;4934531;29;20020;-75
2022/06/22 04:01:42;;;;;;;5.45;1.40;;;589.10;1382.40;;;;;;4934728;29;20382;-75
2022/06/22 04:04:09;;;;;;;3.30;1.50;;;589.20;1356.80;;;;;;4934968;29;20074;-76
2022/06/22 04:06:40;;;;;;;6.32;1.60;;;589.10;1356.80;;;;;;4931020;29;20111;-76
2022/06/22 04:09:20;;;;;;;4.20;1.50;;;589.10;1382.40;;;;;;4934740;29;20216;-76
2022/06/22 04:11:55;;;;;;;6.30;1.60;;;589.10;1356.80;;;;;;4917624;29;20071;-75
2022/06/22 04:14:27;;;;;;;4.57;1.92;;;589.20;1356.80;;;;;;4934862;29;20048;-76
2022/06/22 04:16:59;;;;;;;8.48;1.35;;;589.20;1356.80;;;;;;4934436;29;20027;-76
2022/06/22 04:19:32;;;;;;;3.15;1.33;;;589.30;1331.20;;;;;;4934081;29;20079;-76
2022/06/22 04:22:07;;;;;;;4.82;1.60;;;589.30;1331.20;;;;;;4932018;29;20067;-76
2022/06/22 04:24:56;;;;;;;4.00;1.55;;;589.40;1331.20;;;;;;4934329;29;20442;-76
2022/06/22 04:27:38;;;;;;;4.15;1.50;;;589.50;1305.60;;;;;;4930740;29;20378;-76
2022/06/22 04:30:09;;;;;;;4.60;1.83;;;589.50;1305.60;;;;;;4934189;29;20034;-75
2022/06/22 04:32:39;;;;;;;3.60;1.50;;;589.60;1305.60;;;;;;4923821;29;20103;-75
2022/06/22 04:35:33;;;;;;;3.95;1.33;;;589.60;1305.60;;;;;;4922796;29;20028;-75
2022/06/22 04:38:20;;;;;;;4.68;1.20;;;589.60;1331.20;;;;;;4847788;29;20400;-76
2022/06/22 04:40:57;;;;;;;8.25;1.60;;;589.70;1356.80;;;;;;4848088;29;20050;-76
2022/06/22 04:43:23;;;;;;;5.25;1.52;;;589.60;1331.20;;;;;;4848754;29;20177;-76
2022/06/22 04:45:50;;;;;;;6.30;1.40;;;589.50;1356.80;;;;;;4846783;29;20037;-76
2022/06/22 04:48:29;;;;;;;2.80;1.30;;;589.40;1356.80;;;;;;4856610;29;20053;-76
2022/06/22 04:51:01;;;;;;;6.40;2.00;;;589.70;1331.20;;;;;;4857056;29;20112;-75
2022/06/22 04:53:38;;;;;;;2.63;1.27;;;589.70;1331.20;;;;;;4857328;29;20037;-75
2022/06/22 04:56:10;;;;;;;4.05;1.40;;;589.70;1331.20;;;;;;4857264;29;20137;-77
2022/06/22 04:58:46;;;;;;;2.83;1.30;;;589.70;1331.20;;;;;;4857390;29;20057;-79
2022/06/22 05:01:42;;;;;;;17.77;2.38;;;614.40;1356.80;;;;;;4841580;29;20062;-77
2022/06/22 05:04:17;;;;;;;3.72;1.17;;;614.50;1331.20;;;;;;4844269;29;20037;-76
2022/06/22 05:07:01;;;;;;;5.75;1.63;;;614.50;1331.20;;;;;;4857202;29;20524;-75
2022/06/22 05:09:46;;;;;;;4.78;1.50;;;614.60;1331.20;;;;;;4841194;29;20037;-77
2022/06/22 05:12:16;;;;;;;5.43;1.77;;;614.60;1305.60;;;;;;4860341;29;20037;-77
2022/06/22 05:14:43;;;;;;;6.78;1.50;;;614.60;1305.60;;;;;;4900490;29;20043;-77
2022/06/22 05:17:31;;;;;;;7.35;1.70;;;614.50;1305.60;;;;;;4920118;29;20028;-75
2022/06/22 05:20:03;;;;;;;3.25;1.10;;;614.50;1280.00;;;;;;4937168;29;20023;-75
2022/06/22 05:22:28;;;;;;;2.10;1.10;;;614.60;1254.40;;;;;;4937564;29;20043;-76
2022/06/22 05:24:59;;;;;;;4.72;1.20;;;614.60;1254.40;;;;;;4933588;29;20538;-75
2022/06/22 05:27:33;;;;;;;4.82;1.50;;;614.50;1228.80;;;;;;4933655;29;20020;-75
2022/06/22 05:30:05;;;;;;;2.58;1.33;;;614.50;1254.40;;;;;;4947940;29;20027;-75
2022/06/22 05:32:41;;;;;;;10.32;1.80;;;614.50;1254.40;;;;;;4938851;29;20130;-76
2022/06/22 05:35:11;;;;;;;2.63;1.50;;;614.60;1254.40;;;;;;4937415;29;20050;-76
2022/06/22 05:37:41;;;;;;;4.70;1.42;;;614.60;1228.80;;;;;;4920035;29;20374;-76
2022/06/22 05:40:08;;;;;;;5.47;1.60;;;614.70;1228.80;;;;;;4937345;29;20019;-75
2022/06/22 05:42:34;;;;;;;5.18;1.70;;;614.60;1254.40;;;;;;4936875;29;21331;-76
2022/06/22 05:45:01;;;;;;;2.58;1.30;;;614.60;1254.40;;;;;;4937077;29;20386;-76
2022/06/22 05:47:29;;;;;;;2.90;1.60;;;614.60;1254.40;;;;;;4951117;29;20036;-75
2022/06/22 05:50:14;;;;;;;3.25;1.20;;;614.60;1228.80;;;;;;4948826;29;20030;-76
2022/06/22 05:52:46;;;;;;;1.75;1.10;;;614.60;1228.80;;;;;;4936977;29;20032;-76
2022/06/22 05:55:42;;;;;;;1.92;1.02;;;614.50;1228.80;;;;;;4919820;29;20027;-76
2022/06/22 05:58:23;;;;;;;10.48;2.58;;;614.50;1228.80;;;;;;4924326;29;20023;-76
2022/06/22 06:00:52;;;;;;;11.48;1.70;;;614.70;1203.20;;;;;;4943281;28;20032;-76
2022/06/22 06:03:43;;;;;;;5.50;1.80;;;614.60;1228.80;;;;;;4936695;29;20027;-77
2022/06/22 06:06:21;;;;;;;5.25;1.20;;;614.60;1254.40;;;;;;4936473;29;20046;-76
2022/06/22 06:08:59;;;;;;;11.23;1.63;;;614.70;1254.40;;;;;;4936544;29;20490;-76
2022/06/22 06:11:55;;;;;;;8.82;1.83;;;614.60;1228.80;;;;;;4950551;29;20046;-76
2022/06/22 06:14:26;;;;;;;4.30;1.13;;;614.60;1228.80;;;;;;4878020;29;20090;-76
2022/06/22 06:16:55;;;;;;;2.97;1.35;;;614.50;1228.80;;;;;;4877604;29;20045;-76
2022/06/22 06:19:28;;;;;;;4.40;1.92;;;614.50;1228.80;;;;;;4877797;29;20060;-77
2022/06/22 06:21:57;;;;;;;3.70;1.38;;;614.60;1228.80;;;;;;4861347;29;20029;-76
2022/06/22 06:27:34;;;;;;;6.82;1.55;;;614.60;1228.80;;;;;;4877812;29;20043;-77
2022/06/22 06:27:34;;;;;;;3.47;1.50;;;614.60;1228.80;;;;;;4890842;29;20496;-76
2022/06/22 06:30:13;;;;;;;4.30;1.63;;;614.70;1254.40;;;;;;4877764;29;20043;-77
2022/06/22 06:32:54;;;;;;;6.47;1.60;;;614.60;1228.80;;;;;;4874360;29;20061;-76
2022/06/22 06:35:32;;;;;;;3.78;1.00;;;614.70;1228.80;;;;;;4871365;29;20032;-76
2022/06/22 06:38:09;;;;;;;5.07;1.35;;;614.70;1228.80;;;;;;4862093;29;20040;-76
2022/06/22 06:40:42;;;;;;;3.22;1.30;;;614.80;1254.40;;;;;;4861647;29;20116;-75
2022/06/22 06:43:31;;;;;;;4.65;1.52;;;614.80;1228.80;;;;;;4877559;29;20041;-77
2022/06/22 06:45:58;;;;;;;3.78;1.30;;;614.80;1203.20;;;;;;4861759;29;20037;-77
2022/06/22 06:48:25;;;;;;;6.55;1.25;;;614.90;1203.20;;;;;;4877172;29;20120;-76
2022/06/22 06:50:55;;;;;;;7.43;1.80;;;614.90;1203.20;;;;;;4879062;29;20039;-77
2022/06/22 06:53:56;;;;;;;7.30;1.55;;;614.90;1203.20;;;;;;4918626;29;20012;-78
2022/06/22 06:56:32;;;;;;;7.88;1.52;;;614.80;1203.20;;;;;;4935524;29;20041;-77
2022/06/22 06:59:04;;;;;;;2.88;1.23;;;614.90;1203.20;;;;;;4935865;29;20024;-76
2022/06/22 07:01:33;;;;;;;5.03;1.30;;;614.90;1228.80;;;;;;4939998;29;20512;-76
2022/06/22 07:04:05;;;;;;;6.45;1.80;;;614.90;1228.80;;;;;;4926759;29;20390;-76
2022/06/22 07:06:32;;;;;;;7.88;1.23;;;615.10;1228.80;;;;;;4922138;29;20501;-76
2022/06/22 07:09:15;;;;;;;8.95;1.83;;;615.00;1228.80;;;;;;4944885;29;20070;-76
2022/06/22 07:11:51;;;;;;;5.97;1.77;;;615.10;1203.20;;;;;;4918376;29;20046;-76
2022/06/22 07:14:29;;;;;;;;;;;615.10;1228.80;;;;;;4918739;29;20473;-76
2022/06/22 07:17:11;;;;;;;3.88;1.27;;;615.10;1203.20;;;;;;4935078;28;19911;-76
2022/06/22 07:19:45;;;;;;;3.83;1.40;;;615.10;1177.60;;;;;;4935391;29;20040;-76
2022/06/22 07:22:17;;;;;;;3.55;1.67;;;615.10;1203.20;;;;;;4918286;29;20059;-73
2022/06/22 07:24:54;;;;;;;5.80;1.70;;;615.00;1228.80;;;;;;4935430;29;20110;-77
2022/06/22 07:27:40;;;;;;;4.05;1.50;;;615.10;1228.80;;;;;;4948665;29;20488;-75
2022/06/22 07:30:17;;;;;;;4.15;1.30;;;615.10;1203.20;;;;;;4935351;29;20039;-76
2022/06/22 07:32:54;;;;;;;4.35;1.40;;;615.20;1177.60;;;;;;4934387;29;20024;-75
2022/06/22 07:35:47;;;;;;;6.07;1.45;;;640.00;1177.60;;;;;;4917875;29;20024;-76
2022/06/22 07:38:28;;;;;;;3.92;2.08;;;640.20;1177.60;;;;;;4944002;28;20027;-75
2022/06/22 07:43:38;;;;;;;6.63;1.65;;;640.30;1177.60;;;;;;4934922;29;20046;-76
2022/06/22 07:46:06;;;;;;;5.68;1.15;;;640.20;1177.60;;;;;;4938514;28;20098;-77
2022/06/22 07:48:39;;;;;;;4.82;1.50;;;640.10;1177.60;;;;;;4927302;29;20036;-78
2022/06/22 07:51:08;;;;;;;5.32;1.88;;;640.20;1203.20;;;;;;4931753;29;20067;-79
2022/06/22 07:53:34;;;;;;;5.50;1.70;;;640.20;1177.60;;;;;;4925357;29;20066;-79
2022/06/22 07:56:12;;;;;;;7.45;2.15;;;640.20;1152.00;;;;;;4936592;29;20478;-80
2022/06/22 07:58:45;;;;;;;5.35;1.63;;;640.40;1177.60;;;;;;4954616;29;20020;-79
2022/06/22 08:01:19;;;;;;;4.53;1.48;;;640.40;1177.60;;;;;;4905883;29;20119;-80
2022/06/22 08:03:51;;;;;;;1.88;1.30;;;640.40;1177.60;;;;;;4926098;29;20051;-79
2022/06/22 08:06:36;;;;;;;8.55;1.63;;;640.50;1152.00;;;;;;4928747;29;20024;-82
2022/06/22 08:09:20;;;;;;;6.70;2.28;;;640.70;1152.00;;;;;;4928669;28;20027;-84
2022/06/22 08:11:57;;;;;;;4.35;2.50;;;640.90;1152.00;;;;;;4932555;29;20023;-81
2022/06/22 08:14:28;;;;;;;8.43;1.83;;;665.70;1152.00;;;;;;4917890;29;20390;-79
2022/06/22 08:17:01;;;;;;;6.43;2.17;;;665.70;1152.00;;;;;;4917602;29;20478;-75
2022/06/22 08:19:29;;;;;;;4.00;1.42;;;665.60;1152.00;;;;;;4934514;29;20040;-77
2022/06/22 08:22:04;;;;;;;9.55;1.55;;;665.70;1152.00;;;;;;4934710;29;20087;-77
2022/06/22 08:24:32;;;;;;;2.95;1.23;;;665.60;1152.00;;;;;;4934545;29;20053;-75
2022/06/22 08:27:00;;;;;;;8.13;1.70;;;640.90;1126.40;;;;;;4948001;28;20027;-75
2022/06/22 08:29:30;;;;;;;4.20;1.77;;;640.90;1126.40;;;;;;4917385;29;20024;-75
2022/06/22 08:32:11;;;;;;;6.97;1.50;;;640.90;1126.40;;;;;;4934621;29;20466;-75
2022/06/22 08:34:50;;;;;;;4.22;1.50;;;640.60;1152.00;;;;;;4912498;29;20039;-77
2022/06/22 08:37:24;;;;;;;1.85;1.15;;;640.70;1152.00;;;;;;4944658;29;20028;-77
2022/06/22 08:40:06;;;;;;;1.98;1.20;;;640.90;1152.00;;;;;;4934656;29;20034;-75
2022/06/22 08:42:32;;;;;;;9.00;1.35;;;640.70;1177.60;;;;;;4934348;29;20377;-76
2022/06/22 08:45:06;;;;;;;9.93;1.65;;;640.80;1152.00;;;;;;4937048;29;20509;-75
2022/06/22 08:47:37;;;;;;;6.47;1.60;;;640.80;1152.00;;;;;;4937889;29;20506;-76
2022/06/22 08:50:16;;;;;;;2.83;1.73;;;640.90;1152.00;;;;;;4937884;29;20036;-76
2022/06/22 08:53:12;;;;;;;9.55;1.88;;;640.90;1152.00;;;;;;4941146;29;20047;-77
2022/06/22 08:55:59;;;;;;;2.75;1.48;;;640.90;1177.60;;;;;;4956642;28;20024;-77
2022/06/22 08:58:54;;;;;;;6.22;1.70;;;640.90;1152.00;;;;;;4927372;29;20076;-79
2022/06/22 09:01:33;;;;;;;2.53;1.10;;;640.70;1177.60;;;;;;4927090;29;20035;-80
2022/06/22 09:04:31;;;;;;;10.95;2.33;;;665.60;1177.60;;;;;;4923503;29;20039;-77
2022/06/22 09:07:22;;;;;;;3.83;1.30;;;665.70;1152.00;;;;;;4916308;29;20219;-77
2022/06/22 09:10:04;;;;;;;6.78;1.65;;;665.90;1152.00;;;;;;4929248;29;20024;-76
2022/06/22 09:12:56;;;;;;;12.10;1.73;;;666.00;1152.00;;;;;;4914851;29;20028;-81
2022/06/22 09:15:39;;;;;;;7.60;1.73;;;666.10;1152.00;;;;;;4934686;29;20035;-80
2022/06/22 09:18:37;;;;;;;4.05;1.73;;;666.30;1126.40;;;;;;4935745;29;20498;-82
2022/06/22 09:21:34;;;;;;;3.03;1.35;;;691.30;1100.80;;;;;;4937239;29;20031;-78
2022/06/22 09:24:00;;;;;;;8.90;2.15;;;691.40;1075.20;;;;;;4936485;29;20042;-78
2022/06/22 09:26:50;;;;;;;6.05;1.90;;;691.40;1075.20;;;;;;4936908;29;20114;-78
2022/06/22 09:29:50;;;;;;;6.22;1.63;;;691.60;1075.20;;;;;;4937349;29;20028;-78
2022/06/22 09:32:21;;;;;;;2.67;1.50;;;691.60;1049.60;;;;;;4937351;29;20020;-77
2022/06/22 09:34:50;;;;;;;3.67;1.23;;;691.70;1024.00;;;;;;4940703;29;20031;-78
2022/06/22 09:37:41;;;;;;;2.80;1.40;;;691.80;1049.60;;;;;;4936900;29;20094;-77
2022/06/22 09:40:13;;;;;;;6.25;1.60;;;691.90;1024.00;;;;;;4936654;29;20024;-76
2022/06/22 09:43:00;;;;;;;4.15;1.60;;;716.90;1075.20;;;;;;4919631;29;20039;-79
2022/06/22 09:45:31;;;;;;;5.32;1.80;;;717.00;1049.60;;;;;;4927064;29;20593;-76
2022/06/22 09:48:06;;;;;;;2.75;1.05;;;717.10;1024.00;;;;;;4926916;29;20032;-77
2022/06/22 09:50:59;;;;;;;1.35;1.08;;;717.10;972.80;;;;;;4934592;29;20028;-79
2022/06/22 09:53:53;;;;;;;2.53;1.50;;;717.10;972.80;;;;;;4926735;29;20558;-76
2022/06/22 09:56:31;;;;;;;4.55;2.08;;;717.40;972.80;;;;;;4935838;29;20020;-75
2022/06/22 09:59:09;;;;;;;3.90;1.55;;;717.70;947.20;;;;;;4938872;29;20027;-76
2022/06/22 10:02:06;;;;;;;6.10;1.60;;;742.50;972.80;;;;;;4942606;29;20102;-75
2022/06/22 10:05:08;;;;;;;9.52;1.83;;;742.50;947.20;;;;;;4908856;29;20044;-77
2022/06/22 10:07:54;;;;;;;4.88;1.60;;;742.80;972.80;;;;;;4936652;29;20024;-78
2022/06/22 10:10:23;;;;;;;2.95;1.38;;;743.00;972.80;;;;;;4919149;29;20040;-79
2022/06/22 10:12:53;;;;;;;4.53;1.75;;;743.10;972.80;;;;;;4919629;29;20386;-76
2022/06/22 10:15:24;;;;;;;4.63;2.10;;;743.10;947.20;;;;;;4936715;29;20503;-82
2022/06/22 10:18:01;;;;;;;5.28;1.95;;;743.10;972.80;;;;;;4919005;29;20058;-77
2022/06/22 10:20:26;;;;;;;2.40;1.55;;;768.00;947.20;;;;;;4919383;29;20467;-79
2022/06/22 10:22:52;;;;;;;6.80;1.30;;;743.30;921.60;;;;;;4932362;29;20032;-79
2022/06/22 10:26:05;;;;;;;6.25;1.70;;;743.30;896.00;;;;;;4937025;29;20463;-78
2022/06/22 10:28:30;;;;;;;2.58;1.38;;;768.10;921.60;;;;;;4849886;29;20168;-77
2022/06/22 10:30:57;;;;;;;5.88;1.60;;;768.20;896.00;;;;;;4846198;29;20077;-78
2022/06/22 10:33:33;;;;;;;6.97;1.70;;;768.20;870.40;;;;;;4859089;29;20146;-77
2022/06/22 10:36:37;;;;;;;5.10;1.20;;;768.40;921.60;;;;;;4858821;29;20025;-75
2022/06/22 10:39:33;;;;;;;5.38;1.70;;;768.30;896.00;;;;;;4858810;29;20094;-76
2022/06/22 10:45:40;;;;;;;5.47;1.45;;;768.70;921.60;;;;;;4858976;29;20067;-75
2022/06/22 10:48:47;;;;;;;4.55;1.58;;;768.60;896.00;;;;;;4858630;29;20139;-78
2022/06/22 10:51:19;;;;;;;;;;;768.60;870.40;;;;;;4858104;29;20022;-78
2022/06/22 10:53:51;;;;;;;2.75;1.50;;;768.90;870.40;;;;;;4858509;29;19951;-76
2022/06/22 10:56:37;;;;;;;1.88;1.10;;;768.90;844.80;;;;;;4843145;29;20030;-75
2022/06/22 10:59:02;;;;;;;4.55;1.70;;;793.60;870.40;;;;;;4842518;29;20120;-76
2022/06/22 11:02:10;;;;;;;5.45;1.88;;;793.70;870.40;;;;;;4876611;29;20121;-75
2022/06/22 11:05:16;;;;;;;2.53;1.50;;;793.60;870.40;;;;;;4839448;29;20536;-75
2022/06/22 11:08:01;;;;;;;4.72;1.38;;;793.80;870.40;;;;;;4763904;29;20178;-77
2022/06/22 11:10:35;;;;;;;4.05;1.77;;;794.00;844.80;;;;;;4771037;30;20047;-73
2022/06/22 11:13:21;;;;;;;2.70;1.45;;;794.00;844.80;;;;;;4774232;30;20035;-75
2022/06/22 11:16:13;;;;;;;4.57;1.40;;;794.30;819.20;;;;;;4776765;30;20054;-76
2022/06/22 11:18:59;;;;;;;3.92;1.80;;;794.50;819.20;;;;;;4778632;30;20542;-77
2022/06/22 11:21:46;;;;;;;3.85;1.50;;;794.40;870.40;;;;;;4767534;30;20048;-75
2022/06/22 11:24:23;;;;;;;2.30;1.42;;;794.30;870.40;;;;;;4756127;30;20047;-75
2022/06/22 11:32:57;;;;;;;3.65;1.38;;;794.00;844.80;;;;;;4775965;30;20434;-76
2022/06/22 11:35:50;;;;;;;1.90;1.15;;;794.00;844.80;;;;;;4774188;30;20047;-74
2022/06/22 11:38:50;;;;;;;1.98;1.33;;;794.20;870.40;;;;;;4782638;29;20031;-75
2022/06/22 11:41:52;;;;;;;2.92;1.60;;;794.50;844.80;;;;;;4785788;29;20410;-74
2022/06/22 11:44:30;;;;;;;2.53;1.20;;;819.40;844.80;;;;;;4897092;29;20056;-75
2022/06/22 11:47:02;;;;;;;4.38;1.20;;;819.60;844.80;;;;;;4905698;29;20028;-76
2022/06/22 11:49:42;;;;;;;2.70;1.45;;;819.70;844.80;;;;;;4907058;29;20028;-76
2022/06/22 11:52:34;;;;;;;3.67;1.40;;;819.90;819.20;;;;;;4906899;29;20020;-76
2022/06/22 11:55:13;;;;;;;1.65;1.17;;;819.90;819.20;;;;;;4914167;29;20020;-76
2022/06/22 11:58:00;;;;;;;3.63;1.50;;;819.80;819.20;;;;;;4907811;29;20044;-75
2022/06/22 12:01:10;;;;;;;1.90;1.23;;;820.00;768.00;;;;;;4919028;29;20498;-77
2022/06/22 12:03:59;;;;;;;5.05;1.45;;;819.80;768.00;;;;;;4905505;29;20063;-75
2022/06/22 12:06:38;;;;;;;3.00;1.42;;;820.00;793.60;;;;;;4906047;29;20020;-77
2022/06/22 12:09:20;;;;;;;3.53;1.30;;;820.10;768.00;;;;;;4905433;29;20025;-76
2022/06/22 12:12:12;;;;;;;4.88;1.33;;;819.90;793.60;;;;;;4913749;29;20033;-77
2022/06/22 12:17:50;;;;;;;4.25;1.35;;;819.90;793.60;;;;;;4911774;28;20083;-77
2022/06/22 12:20:30;;;;;;;5.97;1.60;;;820.00;793.60;;;;;;4929056;29;20458;-77
2022/06/22 12:23:15;;;;;;;3.35;1.20;;;819.90;819.20;;;;;;4946968;29;20168;-76
2022/06/22 12:25:58;;;;;;;3.95;1.90;;;820.00;844.80;;;;;;4936050;29;20031;-75
2022/06/22 12:28:42;;;;;;;2.80;1.60;;;820.10;844.80;;;;;;4936548;29;20027;-76
2022/06/22 12:31:15;;;;;;;2.60;1.60;;;819.90;819.20;;;;;;4937059;29;20020;-76
2022/06/22 12:33:45;;;;;;;3.00;1.70;;;820.10;844.80;;;;;;4926373;29;20039;-75
2022/06/22 12:36:37;;;;;;;3.60;1.48;;;820.10;844.80;;;;;;4925704;29;20480;-76
2022/06/22 12:39:11;;;;;;;4.03;1.85;;;820.00;844.80;;;;;;4936084;29;20494;-76
2022/06/22 12:42:00;;;;;;;3.75;1.42;;;819.90;819.20;;;;;;4937644;29;20642;-75
2022/06/22 12:44:35;;;;;;;3.40;1.27;;;820.10;819.20;;;;;;4946851;28;20042;-76
2022/06/22 12:47:49;;;;;;;6.80;1.85;;;820.10;819.20;;;;;;4926460;29;20474;-76
2022/06/22 12:50:33;;;;;;;5.40;1.70;;;820.10;844.80;;;;;;4921373;29;20043;-77
2022/06/22 12:53:10;;;;;;;3.47;1.77;;;844.90;844.80;;;;;;4935634;29;20024;-77
2022/06/22 12:55:42;;;;;;;3.10;1.58;;;844.80;896.00;;;;;;4931151;29;20115;-75
2022/06/22 12:58:21;;;;;;;3.33;1.63;;;844.80;870.40;;;;;;4911665;29;20032;-76
2022/06/22 13:00:48;;;;;;;6.15;1.75;;;844.90;844.80;;;;;;4936834;29;20701;-76
2022/06/22 13:03:22;;;;;;;6.30;1.58;;;844.90;844.80;;;;;;4937224;29;20035;-76
2022/06/22 13:05:48;;;;;;;5.55;2.53;;;844.80;844.80;;;;;;4937729;29;20487;-76
2022/06/22 13:08:23;;;;;;;5.45;2.45;;;844.90;870.40;;;;;;4937399;29;20024;-77
2022/06/22 13:10:59;;;;;;;4.90;2.28;;;820.10;870.40;;;;;;4937679;29;20028;-77
2022/06/22 13:13:36;;;;;;;8.05;4.68;;;844.80;870.40;;;;;;4927772;29;20046;-77
2022/06/22 13:16:28;;;;;;;7.13;4.43;;;844.90;870.40;;;;;;4935042;29;20466;-77
2022/06/22 13:19:16;;;;;;;6.70;5.60;;;844.80;870.40;;;;;;4928574;29;20055;-77
2022/06/22 13:22:22;;;;;;;9.48;4.72;;;845.00;870.40;;;;;;4928531;29;20028;-78
2022/06/22 13:25:00;;;;;;;;;;;844.90;896.00;;;;;;4850338;29;20046;-77
2022/06/22 13:27:45;;;;;;;8.32;5.82;;;820.10;870.40;;;;;;4849843;29;19914;-76
2022/06/22 13:30:46;;;;;;;6.65;4.45;;;844.80;896.00;;;;;;4851102;29;20059;-76
2022/06/22 13:33:31;;;;;;;8.50;3.15;;;820.10;870.40;;;;;;4802961;29;20030;-76
2022/06/22 13:36:09;;;;;;;3.22;2.15;;;844.80;896.00;;;;;;4804822;29;20046;-77
2022/06/22 13:38:43;;;;;;;6.97;2.30;;;820.10;870.40;;;;;;4804717;29;20031;-76